地図

経路データ

SID SEASON NUMBER BASIN SUBBASIN NAME ISO_TIME NATURE LAT LON WMO_WIND WMO_PRES WMO_AGENCY TRACK_TYPE DIST2LAND LANDFALL IFLAG USA_AGENCY USA_ATCF_ID USA_LAT USA_LON USA_RECORD USA_STATUS USA_WIND USA_PRES USA_SSHS USA_R34_NE USA_R34_SE USA_R34_SW USA_R34_NW USA_R50_NE USA_R50_SE USA_R50_SW USA_R50_NW USA_R64_NE USA_R64_SE USA_R64_SW USA_R64_NW USA_POCI USA_ROCI USA_RMW USA_EYE TOKYO_LAT TOKYO_LON TOKYO_GRADE TOKYO_WIND TOKYO_PRES TOKYO_R50_DIR TOKYO_R50_LONG TOKYO_R50_SHORT TOKYO_R30_DIR TOKYO_R30_LONG TOKYO_R30_SHORT TOKYO_LAND CMA_LAT CMA_LON CMA_CAT CMA_WIND CMA_PRES HKO_LAT HKO_LON HKO_CAT HKO_WIND HKO_PRES NEWDELHI_LAT NEWDELHI_LON NEWDELHI_GRADE NEWDELHI_WIND NEWDELHI_PRES NEWDELHI_CI NEWDELHI_DP NEWDELHI_POCI REUNION_LAT REUNION_LON REUNION_TYPE REUNION_WIND REUNION_PRES REUNION_TNUM REUNION_CI REUNION_RMW REUNION_R34_NE REUNION_R34_SE REUNION_R34_SW REUNION_R34_NW REUNION_R50_NE REUNION_R50_SE REUNION_R50_SW REUNION_R50_NW REUNION_R64_NE REUNION_R64_SE REUNION_R64_SW REUNION_R64_NW BOM_LAT BOM_LON BOM_TYPE BOM_WIND BOM_PRES BOM_TNUM BOM_CI BOM_RMW BOM_R34_NE BOM_R34_SE BOM_R34_SW BOM_R34_NW BOM_R50_NE BOM_R50_SE BOM_R50_SW BOM_R50_NW BOM_R64_NE BOM_R64_SE BOM_R64_SW BOM_R64_NW BOM_ROCI BOM_POCI BOM_EYE BOM_POS_METHOD BOM_PRES_METHOD NADI_LAT NADI_LON NADI_CAT NADI_WIND NADI_PRES WELLINGTON_LAT WELLINGTON_LON WELLINGTON_WIND WELLINGTON_PRES DS824_LAT DS824_LON DS824_STAGE DS824_WIND DS824_PRES TD9636_LAT TD9636_LON TD9636_STAGE TD9636_WIND TD9636_PRES TD9635_LAT TD9635_LON TD9635_WIND TD9635_PRES TD9635_ROCI NEUMANN_LAT NEUMANN_LON NEUMANN_CLASS NEUMANN_WIND NEUMANN_PRES MLC_LAT MLC_LON MLC_CLASS MLC_WIND MLC_PRES USA_GUST BOM_GUST BOM_GUST_PER REUNION_GUST REUNION_GUST_PER USA_SEAHGT USA_SEARAD_NE USA_SEARAD_SE USA_SEARAD_SW USA_SEARAD_NW STORM_SPEED STORM_DIR
1956253N21090 1956 85 NI BB NOT_NAMED 1956-09-08 18:00:00 TS 20.8000 90.1000 main 111 111 O________O____ jtwc_io IO111956 20.8000 90.1000 -1 20.8000 90.1000 TC 3 271
1956253N21090 1956 85 NI BB NOT_NAMED 1956-09-08 21:00:00 TS 20.8025 89.9550 main 112 108 P________P____ IO111956 20.8025 89.9550 -1 20.8025 89.9550 TC 3 270
1956253N21090 1956 85 NI BB NOT_NAMED 1956-09-09 00:00:00 TS 20.8000 89.8000 main 108 102 O________O____ jtwc_io IO111956 20.8000 89.8000 -1 20.8000 89.8000 TC 25 3 268
1956253N21090 1956 85 NI BB NOT_NAMED 1956-09-09 03:00:00 TS 20.7933 89.6200 main 102 94 P________PO___ IO111956 20.7924 89.6225 -1 20.7924 89.6225 TC 25 20.8000 89.6000 1 4 271
1956253N21090 1956 85 NI BB NOT_NAMED 1956-09-09 06:00:00 TS 20.8088 89.3873 main 94 89 O________OP___ jtwc_io IO111956 20.8000 89.4000 -1 20.8000 89.4000 TC 25 20.8442 89.3363 1 5 277
1956253N21090 1956 85 NI BB NOT_NAMED 1956-09-09 09:00:00 TS 20.8502 89.0940 main 78 78 P________PP___ IO111956 20.8351 89.1000 -1 20.8351 89.1000 TC 25 20.8905 89.0780 1 5 281
1956253N21090 1956 85 NI BB NOT_NAMED 1956-09-09 12:00:00 TS 20.9139 88.8102 main 78 67 O________OP___ jtwc_io IO111956 20.9000 88.8000 -1 20.9000 88.8000 TC 25 20.9416 88.8307 1 5 287
1956253N21090 1956 85 NI BB NOT_NAMED 1956-09-09 15:00:00 TS 20.9949 88.5950 main 67 55 P________PO___ IO111956 20.9924 88.5925 -1 20.9924 88.5925 TC 25 21.0000 88.6000 1 4 294
1956253N21090 1956 85 NI BB NOT_NAMED 1956-09-09 18:00:00 TS 21.0902 88.3958 main 55 44 O________OP___ jtwc_io IO111956 21.1000 88.4000 -1 21.1000 88.4000 TC 25 21.0706 88.3875 1 4 294
1956253N21090 1956 85 NI BB NOT_NAMED 1956-09-09 21:00:00 TS 21.1740 88.1646 main 44 39 P________PP___ IO111956 21.1775 88.1574 -1 21.1775 88.1574 TC 25 21.1670 88.1790 1 5 295
1956253N21090 1956 85 NI BB NOT_NAMED 1956-09-10 00:00:00 TS 21.3016 87.9187 main 45 22 O________OP___ jtwc_io IO111956 21.3000 87.9000 -1 21.3000 87.9000 TC 25 21.3049 87.9560 1 6 307
1956253N21090 1956 85 NI BB NOT_NAMED 1956-09-10 03:00:00 TS 21.5133 87.6766 main 22 0 P________PO___ IO111956 21.5199 87.6649 -1 21.5199 87.6649 TC 25 21.5000 87.7000 1 7 315
1956253N21090 1956 85 NI BB NOT_NAMED 1956-09-10 06:00:00 TS 21.7865 87.3927 main 0 0 O________OP___ jtwc_io IO111956 21.8000 87.4000 -1 21.8000 87.4000 TC 25 21.7596 87.3782 1 8 314
1956253N21090 1956 85 NI BB NOT_NAMED 1956-09-10 09:00:00 TS 22.0768 87.0509 main 0 0 P________PP___ IO111956 22.0775 87.0649 -1 22.0775 87.0649 TC 25 22.0753 87.0230 1 9 314
1956253N21090 1956 85 NI BB NOT_NAMED 1956-09-10 12:00:00 TS 22.4094 86.6854 main 0 0 O________OP___ jtwc_io IO111956 22.4000 86.7000 -1 22.4000 86.7000 TC 25 22.4284 86.6562 1 10 317
1956253N21090 1956 85 NI BB NOT_NAMED 1956-09-10 15:00:00 TS 22.7900 86.3333 main 0 0 P________PO___ IO111956 22.7849 86.3499 -1 22.7849 86.3499 TC 25 22.8000 86.3000 1 10 321
1956253N21090 1956 85 NI BB NOT_NAMED 1956-09-10 18:00:00 TS 23.1991 85.9859 main 0 0 O________OP___ jtwc_io IO111956 23.2000 86.0000 -1 23.2000 86.0000 TC 25 23.1972 85.9577 1 11 322
1956253N21090 1956 85 NI BB NOT_NAMED 1956-09-10 21:00:00 TS 23.6159 85.6295 main 0 0 P________PP___ IO111956 23.6225 85.6276 -1 23.6225 85.6276 TC 25 23.6025 85.6333 1 10 322
1956253N21090 1956 85 NI BB NOT_NAMED 1956-09-11 00:00:00 TS 23.9939 85.3141 main 0 0 O________OP___ jtwc_io IO111956 24.0000 85.3000 -1 24.0000 85.3000 TC 25 23.9816 85.3422 1 8 323
1956253N21090 1956 85 NI BB NOT_NAMED 1956-09-11 03:00:00 TS 24.2916 85.0748 main 0 0 P________PO___ IO111956 24.2874 85.0623 -1 24.2874 85.0623 TC 25 24.3000 85.1000 1 6 324
1956253N21090 1956 85 NI BB NOT_NAMED 1956-09-11 06:00:00 TS 24.5061 84.9065 main 0 0 O________OP___ jtwc_io IO111956 24.5000 84.9000 -1 24.5000 84.9000 TC 25 24.5184 84.9196 1 5 325
1956253N21090 1956 85 NI BB NOT_NAMED 1956-09-11 09:00:00 TS 24.6732 84.7862 main 0 0 P________PP___ IO111956 24.6725 84.7849 -1 24.6725 84.7849 TC 25 24.6746 84.7888 1 4 327
1956253N21090 1956 85 NI BB NOT_NAMED 1956-09-11 12:00:00 TS 24.7978 84.6962 main 0 0 O________OP___ jtwc_io IO111956 24.8000 84.7000 -1 24.8000 84.7000 TC 25 24.7935 84.6887 1 3 323
1956253N21090 1956 85 NI BB NOT_NAMED 1956-09-11 15:00:00 TS 24.9000 84.6000 main 0 0 P________PO___ IO111956 24.9000 84.5999 -1 24.9000 84.5999 TC 25 24.9000 84.6000 1 3 319
1956253N21090 1956 85 NI BB NOT_NAMED 1956-09-11 18:00:00 TS 25.0057 84.5028 main 0 0 O________OP___ jtwc_io IO111956 25.0000 84.5000 -1 25.0000 84.5000 TC 25 25.0142 84.5070 1 3 323
1956253N21090 1956 85 NI BB NOT_NAMED 1956-09-11 21:00:00 TS 25.1376 84.4035 main 0 0 P________PP___ IO111956 25.1375 84.4001 -1 25.1375 84.4001 TC 25 25.1377 84.4081 1 3 327
1956253N21090 1956 85 NI BB NOT_NAMED 1956-09-12 00:00:00 TS 25.2837 84.3026 main 0 0 O________OP___ jtwc_io IO111956 25.3000 84.3000 -1 25.3000 84.3000 TC 25 25.2674 84.3051 1 3 325
1956253N21090 1956 85 NI BB NOT_NAMED 1956-09-12 03:00:00 NR 25.4000 84.2000 main 0 __________O___ IO111956 -1 TC 25.4000 84.2000 1 3 322

IBTrACS Databaseについて

本データベースは、米国NOAAが公開する1842年以降の世界の熱帯低気圧のベストトラックデータアーカイブInternational Best Track Archive for Climate Stewardship (IBTrACS)を、ウェブで閲覧しやすい形式に変換したものです。

最終更新日:2021-12-01